sensor_id;sensor_type;location;lat;lon;timestamp;temperature;humidity
68128;SHT30;54931;52.098;21.006;2023-05-29T00:01:28;8.69;76.08
68128;SHT30;54931;52.098;21.006;2023-05-29T00:03:55;8.67;76.18
68128;SHT30;54931;52.098;21.006;2023-05-29T00:06:24;8.64;76.18
68128;SHT30;54931;52.098;21.006;2023-05-29T00:08:51;8.59;76.21
68128;SHT30;54931;52.098;21.006;2023-05-29T00:11:19;8.56;76.33
68128;SHT30;54931;52.098;21.006;2023-05-29T00:13:47;8.53;76.40
68128;SHT30;54931;52.098;21.006;2023-05-29T00:16:15;8.50;76.45
68128;SHT30;54931;52.098;21.006;2023-05-29T00:18:44;8.47;76.60
68128;SHT30;54931;52.098;21.006;2023-05-29T00:21:13;8.46;76.60
68128;SHT30;54931;52.098;21.006;2023-05-29T00:23:41;8.43;76.68
68128;SHT30;54931;52.098;21.006;2023-05-29T00:26:09;8.41;76.71
68128;SHT30;54931;52.098;21.006;2023-05-29T00:28:37;8.39;76.81
68128;SHT30;54931;52.098;21.006;2023-05-29T00:31:05;8.39;76.84
68128;SHT30;54931;52.098;21.006;2023-05-29T00:33:32;8.38;76.87
68128;SHT30;54931;52.098;21.006;2023-05-29T00:35:59;8.37;76.93
68128;SHT30;54931;52.098;21.006;2023-05-29T00:38:27;8.36;77.00
68128;SHT30;54931;52.098;21.006;2023-05-29T00:40:54;8.35;77.04
68128;SHT30;54931;52.098;21.006;2023-05-29T00:43:22;8.34;77.08
68128;SHT30;54931;52.098;21.006;2023-05-29T00:45:49;8.31;77.00
68128;SHT30;54931;52.098;21.006;2023-05-29T00:48:17;8.30;77.12
68128;SHT30;54931;52.098;21.006;2023-05-29T00:50:44;8.30;77.21
68128;SHT30;54931;52.098;21.006;2023-05-29T00:53:12;8.30;77.21
68128;SHT30;54931;52.098;21.006;2023-05-29T00:55:40;8.29;77.16
68128;SHT30;54931;52.098;21.006;2023-05-29T00:58:08;8.29;77.09
68128;SHT30;54931;52.098;21.006;2023-05-29T01:00:35;8.27;77.04
68128;SHT30;54931;52.098;21.006;2023-05-29T01:03:05;8.24;77.10
68128;SHT30;54931;52.098;21.006;2023-05-29T01:05:34;8.23;77.10
68128;SHT30;54931;52.098;21.006;2023-05-29T01:08:05;8.21;77.19
68128;SHT30;54931;52.098;21.006;2023-05-29T01:10:33;8.20;77.22
68128;SHT30;54931;52.098;21.006;2023-05-29T01:13:11;8.17;77.23
68128;SHT30;54931;52.098;21.006;2023-05-29T01:16:12;8.13;77.22
68128;SHT30;54931;52.098;21.006;2023-05-29T01:18:54;8.09;77.33
68128;SHT30;54931;52.098;21.006;2023-05-29T01:27:10;8.01;77.66
68128;SHT30;54931;52.098;21.006;2023-05-29T01:29:39;7.98;77.75
68128;SHT30;54931;52.098;21.006;2023-05-29T01:32:09;7.96;77.79
68128;SHT30;54931;52.098;21.006;2023-05-29T01:34:38;7.93;77.88
68128;SHT30;54931;52.098;21.006;2023-05-29T01:37:05;7.92;77.91
68128;SHT30;54931;52.098;21.006;2023-05-29T01:39:32;7.89;77.97
68128;SHT30;54931;52.098;21.006;2023-05-29T01:42:01;7.87;78.02
68128;SHT30;54931;52.098;21.006;2023-05-29T01:44:30;7.84;78.02
68128;SHT30;54931;52.098;21.006;2023-05-29T01:46:58;7.81;78.16
68128;SHT30;54931;52.098;21.006;2023-05-29T01:49:25;7.80;78.23
68128;SHT30;54931;52.098;21.006;2023-05-29T01:51:53;7.77;78.29
68128;SHT30;54931;52.098;21.006;2023-05-29T01:54:21;7.74;78.26
68128;SHT30;54931;52.098;21.006;2023-05-29T01:56:48;7.70;78.32
68128;SHT30;54931;52.098;21.006;2023-05-29T01:59:17;7.66;78.46
68128;SHT30;54931;52.098;21.006;2023-05-29T02:01:44;7.63;78.49
68128;SHT30;54931;52.098;21.006;2023-05-29T02:04:12;7.59;78.52
68128;SHT30;54931;52.098;21.006;2023-05-29T02:06:39;7.56;78.61
68128;SHT30;54931;52.098;21.006;2023-05-29T02:09:07;7.53;78.70
68128;SHT30;54931;52.098;21.006;2023-05-29T02:11:34;7.51;78.79
68128;SHT30;54931;52.098;21.006;2023-05-29T02:14:02;7.49;78.80
68128;SHT30;54931;52.098;21.006;2023-05-29T02:16:30;7.47;78.90
68128;SHT30;54931;52.098;21.006;2023-05-29T02:19:01;7.45;78.99
68128;SHT30;54931;52.098;21.006;2023-05-29T02:21:29;7.44;79.04
68128;SHT30;54931;52.098;21.006;2023-05-29T02:23:57;7.41;79.04
68128;SHT30;54931;52.098;21.006;2023-05-29T02:26:24;7.40;79.10
68128;SHT30;54931;52.098;21.006;2023-05-29T02:28:52;7.38;79.10
68128;SHT30;54931;52.098;21.006;2023-05-29T02:31:20;7.37;79.14
68128;SHT30;54931;52.098;21.006;2023-05-29T02:33:47;7.35;79.11
68128;SHT30;54931;52.098;21.006;2023-05-29T02:36:15;7.34;79.20
68128;SHT30;54931;52.098;21.006;2023-05-29T02:38:43;7.33;79.12
68128;SHT30;54931;52.098;21.006;2023-05-29T02:41:10;7.33;79.27
68128;SHT30;54931;52.098;21.006;2023-05-29T02:43:38;7.34;79.39
68128;SHT30;54931;52.098;21.006;2023-05-29T02:46:05;7.35;79.43
68128;SHT30;54931;52.098;21.006;2023-05-29T02:48:32;7.36;79.49
68128;SHT30;54931;52.098;21.006;2023-05-29T02:51:00;7.39;79.54
68128;SHT30;54931;52.098;21.006;2023-05-29T02:53:27;7.41;79.53
68128;SHT30;54931;52.098;21.006;2023-05-29T02:55:55;7.43;79.50
68128;SHT30;54931;52.098;21.006;2023-05-29T02:58:22;7.44;79.50
68128;SHT30;54931;52.098;21.006;2023-05-29T03:00:50;7.48;79.50
68128;SHT30;54931;52.098;21.006;2023-05-29T03:03:17;7.50;79.50
68128;SHT30;54931;52.098;21.006;2023-05-29T03:05:46;7.53;79.50
68128;SHT30;54931;52.098;21.006;2023-05-29T03:08:14;7.57;79.52
68128;SHT30;54931;52.098;21.006;2023-05-29T03:10:41;7.61;79.50
68128;SHT30;54931;52.098;21.006;2023-05-29T03:13:08;7.66;79.46
68128;SHT30;54931;52.098;21.006;2023-05-29T03:15:37;7.73;79.47
68128;SHT30;54931;52.098;21.006;2023-05-29T03:18:04;7.84;79.49
68128;SHT30;54931;52.098;21.006;2023-05-29T03:20:32;7.90;79.35
68128;SHT30;54931;52.098;21.006;2023-05-29T03:22:59;7.95;79.27
68128;SHT30;54931;52.098;21.006;2023-05-29T03:25:27;8.01;79.20
68128;SHT30;54931;52.098;21.006;2023-05-29T03:27:54;8.08;79.19
68128;SHT30;54931;52.098;21.006;2023-05-29T03:30:22;8.16;79.12
68128;SHT30;54931;52.098;21.006;2023-05-29T03:32:50;8.25;79.06
68128;SHT30;54931;52.098;21.006;2023-05-29T03:35:18;8.38;78.97
68128;SHT30;54931;52.098;21.006;2023-05-29T03:37:45;8.55;78.74
68128;SHT30;54931;52.098;21.006;2023-05-29T03:40:13;8.73;78.54
68128;SHT30;54931;52.098;21.006;2023-05-29T03:42:41;8.91;78.17
68128;SHT30;54931;52.098;21.006;2023-05-29T03:45:09;9.14;78.09
68128;SHT30;54931;52.098;21.006;2023-05-29T03:47:40;9.40;77.65
68128;SHT30;54931;52.098;21.006;2023-05-29T03:50:08;9.65;76.98
68128;SHT30;54931;52.098;21.006;2023-05-29T03:52:37;9.91;76.42
68128;SHT30;54931;52.098;21.006;2023-05-29T03:55:08;10.19;75.94
68128;SHT30;54931;52.098;21.006;2023-05-29T03:57:40;10.49;75.48
68128;SHT30;54931;52.098;21.006;2023-05-29T04:00:09;10.83;75.27
68128;SHT30;54931;52.098;21.006;2023-05-29T04:02:39;11.20;74.52
68128;SHT30;54931;52.098;21.006;2023-05-29T04:05:07;11.55;73.89
68128;SHT30;54931;52.098;21.006;2023-05-29T04:07:39;11.97;73.15
68128;SHT30;54931;52.098;21.006;2023-05-29T04:10:07;12.41;72.28
68128;SHT30;54931;52.098;21.006;2023-05-29T04:12:36;12.86;71.32
68128;SHT30;54931;52.098;21.006;2023-05-29T04:15:04;13.33;70.37
68128;SHT30;54931;52.098;21.006;2023-05-29T04:17:32;13.75;69.26
68128;SHT30;54931;52.098;21.006;2023-05-29T04:19:59;14.07;68.38
68128;SHT30;54931;52.098;21.006;2023-05-29T04:22:33;14.43;67.41
68128;SHT30;54931;52.098;21.006;2023-05-29T04:25:03;14.83;66.38
68128;SHT30;54931;52.098;21.006;2023-05-29T04:27:32;15.23;65.45
68128;SHT30;54931;52.098;21.006;2023-05-29T04:29:59;15.59;64.40
68128;SHT30;54931;52.098;21.006;2023-05-29T04:32:27;15.82;63.43
68128;SHT30;54931;52.098;21.006;2023-05-29T04:34:54;16.13;62.74
68128;SHT30;54931;52.098;21.006;2023-05-29T04:37:22;16.39;61.37
68128;SHT30;54931;52.098;21.006;2023-05-29T04:39:56;16.68;61.13
68128;SHT30;54931;52.098;21.006;2023-05-29T04:42:26;17.00;59.94
68128;SHT30;54931;52.098;21.006;2023-05-29T04:44:54;17.32;58.02
68128;SHT30;54931;52.098;21.006;2023-05-29T04:47:21;17.58;56.92
68128;SHT30;54931;52.098;21.006;2023-05-29T04:49:49;17.88;56.20
68128;SHT30;54931;52.098;21.006;2023-05-29T04:52:17;18.13;54.70
68128;SHT30;54931;52.098;21.006;2023-05-29T04:54:45;18.12;53.34
68128;SHT30;54931;52.098;21.006;2023-05-29T04:57:12;18.18;53.02
68128;SHT30;54931;52.098;21.006;2023-05-29T04:59:40;18.33;52.60
68128;SHT30;54931;52.098;21.006;2023-05-29T05:02:07;18.55;52.36
68128;SHT30;54931;52.098;21.006;2023-05-29T05:04:34;18.81;52.29
68128;SHT30;54931;52.098;21.006;2023-05-29T05:07:02;19.02;53.49
68128;SHT30;54931;52.098;21.006;2023-05-29T05:09:30;19.31;53.40
68128;SHT30;54931;52.098;21.006;2023-05-29T05:11:57;19.60;51.97
68128;SHT30;54931;52.098;21.006;2023-05-29T05:14:25;19.82;50.86
68128;SHT30;54931;52.098;21.006;2023-05-29T05:16:53;20.16;49.97
68128;SHT30;54931;52.098;21.006;2023-05-29T05:19:20;20.38;49.48
68128;SHT30;54931;52.098;21.006;2023-05-29T05:21:48;20.58;48.32
68128;SHT30;54931;52.098;21.006;2023-05-29T05:24:16;20.76;47.26
68128;SHT30;54931;52.098;21.006;2023-05-29T05:26:43;21.13;46.87
68128;SHT30;54931;52.098;21.006;2023-05-29T05:29:11;21.36;45.91
68128;SHT30;54931;52.098;21.006;2023-05-29T05:31:38;21.56;45.96
68128;SHT30;54931;52.098;21.006;2023-05-29T05:34:06;21.79;45.66
68128;SHT30;54931;52.098;21.006;2023-05-29T05:36:34;21.97;44.80
68128;SHT30;54931;52.098;21.006;2023-05-29T05:39:01;22.15;44.53
68128;SHT30;54931;52.098;21.006;2023-05-29T05:41:28;22.23;44.12
68128;SHT30;54931;52.098;21.006;2023-05-29T05:43:56;22.31;44.18
68128;SHT30;54931;52.098;21.006;2023-05-29T05:46:23;22.37;43.08
68128;SHT30;54931;52.098;21.006;2023-05-29T05:48:50;22.52;43.51
68128;SHT30;54931;52.098;21.006;2023-05-29T05:51:18;22.86;41.87
68128;SHT30;54931;52.098;21.006;2023-05-29T05:53:46;22.81;40.49
68128;SHT30;54931;52.098;21.006;2023-05-29T05:56:14;22.79;41.27
68128;SHT30;54931;52.098;21.006;2023-05-29T05:58:41;22.91;40.32
68128;SHT30;54931;52.098;21.006;2023-05-29T06:01:09;22.96;39.75
68128;SHT30;54931;52.098;21.006;2023-05-29T06:03:37;23.00;38.34
68128;SHT30;54931;52.098;21.006;2023-05-29T06:06:05;23.06;37.70
68128;SHT30;54931;52.098;21.006;2023-05-29T06:08:34;23.11;37.96
68128;SHT30;54931;52.098;21.006;2023-05-29T06:11:01;23.20;38.71
68128;SHT30;54931;52.098;21.006;2023-05-29T06:13:29;23.42;39.05
68128;SHT30;54931;52.098;21.006;2023-05-29T06:15:56;23.64;38.84
68128;SHT30;54931;52.098;21.006;2023-05-29T06:18:24;23.85;38.53
68128;SHT30;54931;52.098;21.006;2023-05-29T06:20:51;24.10;38.24
68128;SHT30;54931;52.098;21.006;2023-05-29T06:23:18;24.09;36.23
68128;SHT30;54931;52.098;21.006;2023-05-29T06:25:47;23.93;36.53
68128;SHT30;54931;52.098;21.006;2023-05-29T06:28:15;24.02;36.76
68128;SHT30;54931;52.098;21.006;2023-05-29T06:30:42;24.23;37.09
68128;SHT30;54931;52.098;21.006;2023-05-29T06:33:10;24.34;37.62
68128;SHT30;54931;52.098;21.006;2023-05-29T06:35:37;24.57;38.13
68128;SHT30;54931;52.098;21.006;2023-05-29T06:38:05;24.77;38.47
68128;SHT30;54931;52.098;21.006;2023-05-29T06:40:33;25.01;38.41
68128;SHT30;54931;52.098;21.006;2023-05-29T06:43:00;25.11;37.80
68128;SHT30;54931;52.098;21.006;2023-05-29T06:45:28;24.99;36.93
68128;SHT30;54931;52.098;21.006;2023-05-29T06:47:56;25.01;37.67
68128;SHT30;54931;52.098;21.006;2023-05-29T06:50:23;25.17;37.64
68128;SHT30;54931;52.098;21.006;2023-05-29T06:52:50;25.23;36.06
68128;SHT30;54931;52.098;21.006;2023-05-29T06:55:19;25.33;35.94
68128;SHT30;54931;52.098;21.006;2023-05-29T06:57:46;25.37;35.24
68128;SHT30;54931;52.098;21.006;2023-05-29T07:00:14;25.35;35.55
68128;SHT30;54931;52.098;21.006;2023-05-29T07:02:42;25.33;35.23
68128;SHT30;54931;52.098;21.006;2023-05-29T07:05:10;25.39;35.53
68128;SHT30;54931;52.098;21.006;2023-05-29T07:07:37;25.51;35.19
68128;SHT30;54931;52.098;21.006;2023-05-29T07:10:05;25.63;34.37
68128;SHT30;54931;52.098;21.006;2023-05-29T07:12:33;25.86;33.19
68128;SHT30;54931;52.098;21.006;2023-05-29T07:15:00;25.67;31.24
68128;SHT30;54931;52.098;21.006;2023-05-29T07:17:27;25.50;31.98
68128;SHT30;54931;52.098;21.006;2023-05-29T07:19:55;25.69;32.39
68128;SHT30;54931;52.098;21.006;2023-05-29T07:22:23;25.74;31.02
68128;SHT30;54931;52.098;21.006;2023-05-29T07:24:50;25.49;31.17
68128;SHT30;54931;52.098;21.006;2023-05-29T07:27:17;25.35;30.94
68128;SHT30;54931;52.098;21.006;2023-05-29T07:29:45;25.28;30.37
68128;SHT30;54931;52.098;21.006;2023-05-29T07:32:12;25.23;30.81
68128;SHT30;54931;52.098;21.006;2023-05-29T07:34:40;25.19;31.21
68128;SHT30;54931;52.098;21.006;2023-05-29T07:37:07;25.16;30.58
68128;SHT30;54931;52.098;21.006;2023-05-29T07:39:35;25.05;30.37
68128;SHT30;54931;52.098;21.006;2023-05-29T07:42:03;25.03;31.01
68128;SHT30;54931;52.098;21.006;2023-05-29T07:44:30;25.15;32.06
68128;SHT30;54931;52.098;21.006;2023-05-29T07:46:58;25.33;31.76
68128;SHT30;54931;52.098;21.006;2023-05-29T07:49:25;25.46;30.41
68128;SHT30;54931;52.098;21.006;2023-05-29T07:51:52;25.36;29.94
68128;SHT30;54931;52.098;21.006;2023-05-29T07:54:20;25.24;30.51
68128;SHT30;54931;52.098;21.006;2023-05-29T07:56:49;25.21;31.35
68128;SHT30;54931;52.098;21.006;2023-05-29T07:59:17;25.30;31.61
68128;SHT30;54931;52.098;21.006;2023-05-29T08:01:45;25.50;31.76
68128;SHT30;54931;52.098;21.006;2023-05-29T08:04:13;25.65;31.26
68128;SHT30;54931;52.098;21.006;2023-05-29T08:06:40;25.72;30.72
68128;SHT30;54931;52.098;21.006;2023-05-29T08:09:10;25.84;30.20
68128;SHT30;54931;52.098;21.006;2023-05-29T08:11:37;25.86;30.65
68128;SHT30;54931;52.098;21.006;2023-05-29T08:14:05;26.00;30.87
68128;SHT30;54931;52.098;21.006;2023-05-29T08:16:32;25.91;30.07
68128;SHT30;54931;52.098;21.006;2023-05-29T08:19:00;25.68;30.67
68128;SHT30;54931;52.098;21.006;2023-05-29T08:21:27;25.67;32.04
68128;SHT30;54931;52.098;21.006;2023-05-29T08:23:54;25.86;31.22
68128;SHT30;54931;52.098;21.006;2023-05-29T08:26:22;25.86;29.84
68128;SHT30;54931;52.098;21.006;2023-05-29T08:28:49;25.81;29.91
68128;SHT30;54931;52.098;21.006;2023-05-29T08:31:17;25.88;30.30
68128;SHT30;54931;52.098;21.006;2023-05-29T08:33:44;25.86;29.55
68128;SHT30;54931;52.098;21.006;2023-05-29T08:36:12;25.81;29.89
68128;SHT30;54931;52.098;21.006;2023-05-29T08:38:39;25.71;29.91
68128;SHT30;54931;52.098;21.006;2023-05-29T08:41:07;25.80;30.49
68128;SHT30;54931;52.098;21.006;2023-05-29T08:43:34;26.16;30.91
68128;SHT30;54931;52.098;21.006;2023-05-29T08:46:02;26.45;30.65
68128;SHT30;54931;52.098;21.006;2023-05-29T08:48:30;26.49;29.84
68128;SHT30;54931;52.098;21.006;2023-05-29T08:50:58;26.55;29.52
68128;SHT30;54931;52.098;21.006;2023-05-29T08:53:29;26.72;28.83
68128;SHT30;54931;52.098;21.006;2023-05-29T08:55:58;26.86;29.52
68128;SHT30;54931;52.098;21.006;2023-05-29T08:58:27;27.01;29.28
68128;SHT30;54931;52.098;21.006;2023-05-29T09:00:54;27.13;29.70
68128;SHT30;54931;52.098;21.006;2023-05-29T09:03:22;27.23;28.79
68128;SHT30;54931;52.098;21.006;2023-05-29T09:05:49;27.24;27.85
68128;SHT30;54931;52.098;21.006;2023-05-29T09:08:17;27.06;28.44
68128;SHT30;54931;52.098;21.006;2023-05-29T09:10:45;26.96;28.29
68128;SHT30;54931;52.098;21.006;2023-05-29T09:13:13;26.94;28.49
68128;SHT30;54931;52.098;21.006;2023-05-29T09:15:41;26.77;27.76
68128;SHT30;54931;52.098;21.006;2023-05-29T09:18:09;26.68;28.47
68128;SHT30;54931;52.098;21.006;2023-05-29T09:20:37;26.66;28.76
68128;SHT30;54931;52.098;21.006;2023-05-29T09:23:06;26.64;28.81
68128;SHT30;54931;52.098;21.006;2023-05-29T09:25:39;26.80;28.83
68128;SHT30;54931;52.098;21.006;2023-05-29T09:28:08;27.08;28.66
68128;SHT30;54931;52.098;21.006;2023-05-29T09:33:11;27.26;27.95
68128;SHT30;54931;52.098;21.006;2023-05-29T09:35:40;27.32;27.45
68128;SHT30;54931;52.098;21.006;2023-05-29T09:38:10;27.32;28.33
68128;SHT30;54931;52.098;21.006;2023-05-29T09:40:39;27.37;27.35
68128;SHT30;54931;52.098;21.006;2023-05-29T09:43:14;27.38;28.26
68128;SHT30;54931;52.098;21.006;2023-05-29T09:45:44;27.43;27.18
68128;SHT30;54931;52.098;21.006;2023-05-29T09:48:22;27.19;26.78
68128;SHT30;54931;52.098;21.006;2023-05-29T09:50:50;26.94;27.86
68128;SHT30;54931;52.098;21.006;2023-05-29T09:53:18;27.01;27.92
68128;SHT30;54931;52.098;21.006;2023-05-29T09:55:47;27.11;28.25
68128;SHT30;54931;52.098;21.006;2023-05-29T09:58:17;27.22;27.84
68128;SHT30;54931;52.098;21.006;2023-05-29T10:00:45;27.14;27.47
68128;SHT30;54931;52.098;21.006;2023-05-29T10:03:14;27.03;27.83
68128;SHT30;54931;52.098;21.006;2023-05-29T10:05:46;27.16;27.89
68128;SHT30;54931;52.098;21.006;2023-05-29T10:08:18;27.19;27.45
68128;SHT30;54931;52.098;21.006;2023-05-29T10:10:48;27.19;27.67
68128;SHT30;54931;52.098;21.006;2023-05-29T10:13:20;27.24;27.45
68128;SHT30;54931;52.098;21.006;2023-05-29T10:15:51;27.06;28.10
68128;SHT30;54931;52.098;21.006;2023-05-29T10:18:29;26.98;27.96
68128;SHT30;54931;52.098;21.006;2023-05-29T10:21:02;27.03;27.47
68128;SHT30;54931;52.098;21.006;2023-05-29T10:23:30;26.96;26.61
68128;SHT30;54931;52.098;21.006;2023-05-29T10:26:06;26.90;27.65
68128;SHT30;54931;52.098;21.006;2023-05-29T10:28:37;26.82;27.19
68128;SHT30;54931;52.098;21.006;2023-05-29T10:31:09;26.72;26.99
68128;SHT30;54931;52.098;21.006;2023-05-29T10:36:23;26.81;27.31
68128;SHT30;54931;52.098;21.006;2023-05-29T10:38:57;26.72;27.21
68128;SHT30;54931;52.098;21.006;2023-05-29T10:43:55;26.62;28.88
68128;SHT30;54931;52.098;21.006;2023-05-29T10:49:19;26.39;27.65
68128;SHT30;54931;52.098;21.006;2023-05-29T10:51:47;26.30;28.22
68128;SHT30;54931;52.098;21.006;2023-05-29T10:54:15;26.23;28.77
68128;SHT30;54931;52.098;21.006;2023-05-29T10:56:56;26.01;27.69
68128;SHT30;54931;52.098;21.006;2023-05-29T10:59:25;25.66;28.16
68128;SHT30;54931;52.098;21.006;2023-05-29T11:01:54;25.62;30.10
68128;SHT30;54931;52.098;21.006;2023-05-29T11:06:53;25.84;30.40
68128;SHT30;54931;52.098;21.006;2023-05-29T11:09:37;26.06;30.41
68128;SHT30;54931;52.098;21.006;2023-05-29T11:15:06;26.16;30.43
68128;SHT30;54931;52.098;21.006;2023-05-29T11:25:29;25.83;30.74
68128;SHT30;54931;52.098;21.006;2023-05-29T11:28:01;25.73;30.74
68128;SHT30;54931;52.098;21.006;2023-05-29T11:30:31;25.66;31.56
68128;SHT30;54931;52.098;21.006;2023-05-29T11:33:06;25.44;29.93
68128;SHT30;54931;52.098;21.006;2023-05-29T11:35:35;25.26;31.01
68128;SHT30;54931;52.098;21.006;2023-05-29T11:38:05;25.31;31.72
68128;SHT30;54931;52.098;21.006;2023-05-29T11:40:36;25.23;30.39
68128;SHT30;54931;52.098;21.006;2023-05-29T11:43:04;25.12;30.72
68128;SHT30;54931;52.098;21.006;2023-05-29T11:45:32;25.03;30.02
68128;SHT30;54931;52.098;21.006;2023-05-29T11:48:03;24.86;29.86
68128;SHT30;54931;52.098;21.006;2023-05-29T11:50:31;24.81;31.65
68128;SHT30;54931;52.098;21.006;2023-05-29T11:53:00;24.96;31.80
68128;SHT30;54931;52.098;21.006;2023-05-29T11:55:27;25.15;31.17
68128;SHT30;54931;52.098;21.006;2023-05-29T11:57:56;25.26;31.26
68128;SHT30;54931;52.098;21.006;2023-05-29T12:00:25;25.21;29.71
68128;SHT30;54931;52.098;21.006;2023-05-29T12:02:58;25.08;29.68
68128;SHT30;54931;52.098;21.006;2023-05-29T12:05:31;25.13;30.65
68128;SHT30;54931;52.098;21.006;2023-05-29T12:08:00;25.33;32.70
68128;SHT30;54931;52.098;21.006;2023-05-29T12:10:31;25.50;31.80
68128;SHT30;54931;52.098;21.006;2023-05-29T12:12:59;25.64;31.51
68128;SHT30;54931;52.098;21.006;2023-05-29T12:15:30;25.67;30.53
68128;SHT30;54931;52.098;21.006;2023-05-29T12:17:58;25.69;30.47
68128;SHT30;54931;52.098;21.006;2023-05-29T12:20:25;25.66;30.83
68128;SHT30;54931;52.098;21.006;2023-05-29T12:22:59;25.66;30.07
68128;SHT30;54931;52.098;21.006;2023-05-29T12:25:28;25.57;30.44
68128;SHT30;54931;52.098;21.006;2023-05-29T12:27:56;25.67;31.29
68128;SHT30;54931;52.098;21.006;2023-05-29T12:30:24;25.84;30.36
68128;SHT30;54931;52.098;21.006;2023-05-29T12:32:53;25.93;30.51
68128;SHT30;54931;52.098;21.006;2023-05-29T12:35:21;26.08;30.69
68128;SHT30;54931;52.098;21.006;2023-05-29T12:37:55;26.04;29.55
68128;SHT30;54931;52.098;21.006;2023-05-29T12:42:57;26.13;30.65
68128;SHT30;54931;52.098;21.006;2023-05-29T12:45:26;26.17;30.73
68128;SHT30;54931;52.098;21.006;2023-05-29T12:47:59;26.20;30.42
68128;SHT30;54931;52.098;21.006;2023-05-29T12:50:34;26.14;30.72
68128;SHT30;54931;52.098;21.006;2023-05-29T12:53:05;26.10;30.13
68128;SHT30;54931;52.098;21.006;2023-05-29T12:55:34;25.99;29.65
68128;SHT30;54931;52.098;21.006;2023-05-29T12:58:07;25.85;30.06
68128;SHT30;54931;52.098;21.006;2023-05-29T13:00:39;25.78;29.98
68128;SHT30;54931;52.098;21.006;2023-05-29T13:03:09;25.65;30.40
68128;SHT30;54931;52.098;21.006;2023-05-29T13:05:37;25.62;29.36
68128;SHT30;54931;52.098;21.006;2023-05-29T13:08:06;25.45;29.71
68128;SHT30;54931;52.098;21.006;2023-05-29T13:10:34;25.35;30.24
68128;SHT30;54931;52.098;21.006;2023-05-29T13:13:03;25.40;30.53
68128;SHT30;54931;52.098;21.006;2023-05-29T13:15:30;25.56;30.39
68128;SHT30;54931;52.098;21.006;2023-05-29T13:17:59;25.62;29.46
68128;SHT30;54931;52.098;21.006;2023-05-29T13:20:27;25.65;31.57
68128;SHT30;54931;52.098;21.006;2023-05-29T13:22:55;25.83;31.08
68128;SHT30;54931;52.098;21.006;2023-05-29T13:25:23;25.84;29.96
68128;SHT30;54931;52.098;21.006;2023-05-29T13:27:52;25.78;30.04
68128;SHT30;54931;52.098;21.006;2023-05-29T13:30:20;25.75;31.09
68128;SHT30;54931;52.098;21.006;2023-05-29T13:32:50;25.66;30.57
68128;SHT30;54931;52.098;21.006;2023-05-29T13:35:18;25.69;30.50
68128;SHT30;54931;52.098;21.006;2023-05-29T13:37:46;25.85;31.16
68128;SHT30;54931;52.098;21.006;2023-05-29T13:40:14;26.06;31.02
68128;SHT30;54931;52.098;21.006;2023-05-29T13:42:42;26.09;29.04
68128;SHT30;54931;52.098;21.006;2023-05-29T13:45:09;25.97;30.37
68128;SHT30;54931;52.098;21.006;2023-05-29T13:47:38;26.09;29.96
68128;SHT30;54931;52.098;21.006;2023-05-29T13:50:06;26.06;29.69
68128;SHT30;54931;52.098;21.006;2023-05-29T13:52:35;25.96;29.71
68128;SHT30;54931;52.098;21.006;2023-05-29T13:55:02;25.91;30.49
68128;SHT30;54931;52.098;21.006;2023-05-29T13:57:35;25.90;30.29
68128;SHT30;54931;52.098;21.006;2023-05-29T14:00:04;25.96;30.54
68128;SHT30;54931;52.098;21.006;2023-05-29T14:02:35;25.97;29.87
68128;SHT30;54931;52.098;21.006;2023-05-29T14:05:02;26.03;31.30
68128;SHT30;54931;52.098;21.006;2023-05-29T14:07:30;26.19;30.89
68128;SHT30;54931;52.098;21.006;2023-05-29T14:09:58;26.04;29.72
68128;SHT30;54931;52.098;21.006;2023-05-29T14:12:25;25.60;30.03
68128;SHT30;54931;52.098;21.006;2023-05-29T14:14:54;25.26;30.98
68128;SHT30;54931;52.098;21.006;2023-05-29T14:17:21;25.05;31.09
68128;SHT30;54931;52.098;21.006;2023-05-29T14:19:48;24.77;30.66
68128;SHT30;54931;52.098;21.006;2023-05-29T14:22:16;24.61;31.67
68128;SHT30;54931;52.098;21.006;2023-05-29T14:24:43;24.65;32.16
68128;SHT30;54931;52.098;21.006;2023-05-29T14:27:11;24.63;31.25
68128;SHT30;54931;52.098;21.006;2023-05-29T14:29:38;24.63;31.49
68128;SHT30;54931;52.098;21.006;2023-05-29T14:32:06;24.68;31.69
68128;SHT30;54931;52.098;21.006;2023-05-29T14:34:33;24.87;32.32
68128;SHT30;54931;52.098;21.006;2023-05-29T14:37:01;25.07;31.59
68128;SHT30;54931;52.098;21.006;2023-05-29T14:39:28;25.24;30.73
68128;SHT30;54931;52.098;21.006;2023-05-29T14:41:55;25.23;30.81
68128;SHT30;54931;52.098;21.006;2023-05-29T14:44:23;25.27;31.80
68128;SHT30;54931;52.098;21.006;2023-05-29T14:46:51;25.36;31.16
68128;SHT30;54931;52.098;21.006;2023-05-29T14:49:18;25.44;31.94
68128;SHT30;54931;52.098;21.006;2023-05-29T14:51:46;25.74;32.66
68128;SHT30;54931;52.098;21.006;2023-05-29T14:54:14;26.15;31.36
68128;SHT30;54931;52.098;21.006;2023-05-29T14:56:41;26.53;30.62
68128;SHT30;54931;52.098;21.006;2023-05-29T14:59:09;26.86;29.45
68128;SHT30;54931;52.098;21.006;2023-05-29T15:01:36;27.11;29.42
68128;SHT30;54931;52.098;21.006;2023-05-29T15:04:04;27.34;28.68
68128;SHT30;54931;52.098;21.006;2023-05-29T15:06:32;27.54;28.56
68128;SHT30;54931;52.098;21.006;2023-05-29T15:09:00;27.85;28.45
68128;SHT30;54931;52.098;21.006;2023-05-29T15:11:30;28.12;28.12
68128;SHT30;54931;52.098;21.006;2023-05-29T15:13:58;28.30;28.20
68128;SHT30;54931;52.098;21.006;2023-05-29T15:16:26;28.50;28.36
68128;SHT30;54931;52.098;21.006;2023-05-29T15:18:53;28.59;27.17
68128;SHT30;54931;52.098;21.006;2023-05-29T15:21:20;28.57;27.27
68128;SHT30;54931;52.098;21.006;2023-05-29T15:23:48;28.68;27.76
68128;SHT30;54931;52.098;21.006;2023-05-29T15:26:16;28.83;26.88
68128;SHT30;54931;52.098;21.006;2023-05-29T15:28:43;28.86;26.82
68128;SHT30;54931;52.098;21.006;2023-05-29T15:31:10;29.09;26.97
68128;SHT30;54931;52.098;21.006;2023-05-29T15:33:37;29.26;26.29
68128;SHT30;54931;52.098;21.006;2023-05-29T15:36:06;29.33;26.02
68128;SHT30;54931;52.098;21.006;2023-05-29T15:38:34;29.45;27.06
68128;SHT30;54931;52.098;21.006;2023-05-29T15:41:02;29.62;26.38
68128;SHT30;54931;52.098;21.006;2023-05-29T15:43:30;29.61;26.02
68128;SHT30;54931;52.098;21.006;2023-05-29T15:45:59;29.66;25.97
68128;SHT30;54931;52.098;21.006;2023-05-29T15:48:26;29.59;25.30
68128;SHT30;54931;52.098;21.006;2023-05-29T15:50:54;29.18;24.90
68128;SHT30;54931;52.098;21.006;2023-05-29T15:53:21;28.67;25.23
68128;SHT30;54931;52.098;21.006;2023-05-29T15:55:48;28.55;26.15
68128;SHT30;54931;52.098;21.006;2023-05-29T15:58:15;28.55;26.11
68128;SHT30;54931;52.098;21.006;2023-05-29T16:00:43;28.48;26.97